Time;durP1;ratioP1;P1;durP2;ratioP2;P2;SDS_P1;SDS_P2;PMS_P1;PMS_P2;Temp;Humidity;BMP_temperature;BMP_pressure;BME280_temperature;BME280_humidity;BME280_pressure;Samples;Min_cycle;Max_cycle;Signal;HPM_P1;HPM_P2
2021/03/26 00:00:17;;;;;;;6.75;2.60;;;17.80;59.10;;;;;;6213332;23;20001;-72
2021/03/26 00:02:43;;;;;;;7.53;3.10;;;17.80;59.10;;;;;;6213919;23;20337;-72
2021/03/26 00:05:13;;;;;;;5.00;2.50;;;17.80;59.20;;;;;;6213461;23;20000;-72
2021/03/26 00:07:39;;;;;;;5.43;2.40;;;17.70;59.10;;;;;;6214112;23;20322;-72
2021/03/26 00:10:10;;;;;;;4.75;2.65;;;17.70;59.00;;;;;;6213232;23;20047;-72
2021/03/26 00:12:35;;;;;;;5.60;2.30;;;17.70;59.00;;;;;;6213642;23;20001;-72
2021/03/26 00:15:02;;;;;;;4.40;2.38;;;17.70;59.00;;;;;;6213540;23;20008;-73
2021/03/26 00:17:27;;;;;;;4.93;2.65;;;17.70;59.00;;;;;;6213948;23;20000;-73
2021/03/26 00:19:53;;;;;;;4.03;2.60;;;17.70;58.90;;;;;;6213690;23;20437;-72
2021/03/26 00:22:18;;;;;;;4.80;2.55;;;17.60;58.90;;;;;;6214219;23;20001;-72
2021/03/26 00:24:44;;;;;;;6.72;3.08;;;17.70;58.90;;;;;;6213732;23;20044;-72
2021/03/26 00:27:09;;;;;;;3.80;2.47;;;17.60;58.80;;;;;;6213600;23;20000;-75
2021/03/26 00:29:35;;;;;;;5.93;3.05;;;17.60;58.80;;;;;;6213172;23;20015;-73
2021/03/26 00:32:01;;;;;;;4.38;2.60;;;17.60;58.80;;;;;;6213672;23;20076;-73
2021/03/26 00:34:28;;;;;;;5.10;2.90;;;17.60;58.80;;;;;;6186949;23;20009;-74
2021/03/26 00:36:53;;;;;;;5.32;2.78;;;17.60;58.80;;;;;;6213641;23;20370;-73
2021/03/26 00:39:19;;;;;;;5.25;2.78;;;17.60;58.80;;;;;;6213505;23;20031;-73
2021/03/26 00:41:45;;;;;;;3.72;2.50;;;17.50;58.70;;;;;;6213772;23;20024;-72
2021/03/26 00:44:11;;;;;;;3.95;2.42;;;17.50;58.80;;;;;;6213235;23;20008;-72
2021/03/26 00:46:39;;;;;;;6.28;2.63;;;17.50;58.80;;;;;;6213712;23;20067;-73
2021/03/26 00:49:05;;;;;;;5.43;2.72;;;17.50;58.80;;;;;;6213155;23;20022;-72
2021/03/26 00:51:30;;;;;;;4.60;2.80;;;17.50;58.80;;;;;;6213554;23;20067;-74
2021/03/26 00:53:56;;;;;;;4.47;2.65;;;17.50;58.80;;;;;;6213498;23;20012;-72
2021/03/26 00:56:22;;;;;;;6.28;3.38;;;17.50;58.80;;;;;;6213918;23;20001;-72
2021/03/26 00:58:47;;;;;;;4.90;2.80;;;17.40;58.70;;;;;;6213528;23;20011;-73
2021/03/26 01:01:13;;;;;;;5.55;2.95;;;17.40;58.60;;;;;;6213311;23;20103;-73
2021/03/26 01:03:38;;;;;;;5.57;3.22;;;17.40;58.70;;;;;;6213890;23;20005;-73
2021/03/26 01:06:07;;;;;;;5.50;2.85;;;17.40;58.60;;;;;;6213335;23;20005;-72
2021/03/26 01:08:33;;;;;;;4.88;2.88;;;17.40;58.70;;;;;;6213399;23;20016;-72
2021/03/26 01:11:05;;;;;;;6.05;2.63;;;17.40;58.70;;;;;;6213443;23;20337;-71
2021/03/26 01:13:31;;;;;;;5.00;2.80;;;17.40;58.70;;;;;;6186607;23;20370;-72
2021/03/26 01:15:56;;;;;;;6.35;3.15;;;17.40;58.60;;;;;;6186997;23;20015;-73
2021/03/26 01:18:29;;;;;;;5.22;2.90;;;17.30;58.60;;;;;;6213703;23;20325;-75
2021/03/26 01:20:56;;;;;;;6.53;3.10;;;17.30;58.60;;;;;;6213598;23;20357;-75
2021/03/26 01:23:23;;;;;;;4.40;2.53;;;17.30;58.50;;;;;;6189007;23;20380;-73
2021/03/26 01:25:49;;;;;;;5.07;2.75;;;17.30;58.60;;;;;;6215201;23;20004;-74
2021/03/26 01:28:19;;;;;;;5.75;3.08;;;17.30;58.50;;;;;;6215661;23;20063;-73
2021/03/26 01:30:45;;;;;;;4.68;3.08;;;17.30;58.60;;;;;;6214945;23;20051;-72
2021/03/26 01:33:11;;;;;;;4.88;2.70;;;17.30;58.50;;;;;;6215336;23;20007;-72
2021/03/26 01:35:38;;;;;;;4.32;2.60;;;17.20;58.50;;;;;;6215010;23;20005;-74
2021/03/26 01:38:05;;;;;;;4.13;2.72;;;17.20;58.40;;;;;;6214339;23;20008;-73
2021/03/26 01:40:38;;;;;;;5.55;2.90;;;17.20;58.40;;;;;;6215146;23;20012;-73
2021/03/26 01:43:15;;;;;;;4.95;2.70;;;17.20;58.40;;;;;;6215143;23;20020;-76
2021/03/26 01:45:42;;;;;;;5.25;3.45;;;17.20;58.40;;;;;;6215357;23;20007;-73
2021/03/26 01:48:09;;;;;;;4.72;2.75;;;17.20;58.40;;;;;;6214988;23;20001;-72
2021/03/26 01:50:36;;;;;;;7.60;3.28;;;17.20;58.40;;;;;;6215104;23;20016;-72
2021/03/26 01:53:04;;;;;;;6.10;3.10;;;17.20;58.40;;;;;;6215342;23;20004;-75
2021/03/26 01:55:50;;;;;;;6.55;2.97;;;17.10;58.30;;;;;;6215170;23;20000;-73
2021/03/26 01:58:22;;;;;;;5.43;2.88;;;17.10;58.30;;;;;;6215081;23;20032;-74
2021/03/26 02:00:58;;;;;;;4.03;2.70;;;17.10;58.30;;;;;;6214824;23;20005;-72
2021/03/26 02:03:31;;;;;;;5.28;3.20;;;17.10;58.30;;;;;;6214912;23;20019;-74
2021/03/26 02:05:59;;;;;;;6.20;3.40;;;17.10;58.40;;;;;;6215203;23;20462;-74
2021/03/26 02:08:34;;;;;;;6.35;3.25;;;17.10;58.30;;;;;;6215322;23;20012;-73
2021/03/26 02:11:07;;;;;;;4.95;2.97;;;17.10;58.40;;;;;;6214886;23;20032;-72
2021/03/26 02:13:35;;;;;;;6.90;3.33;;;17.10;58.40;;;;;;6214659;23;20005;-73
2021/03/26 02:16:04;;;;;;;4.63;3.17;;;17.10;58.40;;;;;;6215028;23;20433;-74
2021/03/26 02:18:36;;;;;;;6.43;3.47;;;17.00;58.40;;;;;;6214870;23;20000;-72
2021/03/26 02:21:10;;;;;;;4.63;2.67;;;17.00;58.30;;;;;;6214697;23;20429;-74
2021/03/26 02:23:37;;;;;;;5.35;3.25;;;17.00;58.30;;;;;;6214944;23;20004;-73
2021/03/26 02:26:15;;;;;;;5.05;2.38;;;17.00;58.40;;;;;;6188094;23;20005;-73
2021/03/26 02:28:41;;;;;;;5.78;3.15;;;17.00;58.40;;;;;;6214982;23;20353;-72
2021/03/26 02:31:07;;;;;;;5.97;3.10;;;17.00;58.30;;;;;;6214550;23;20000;-72
2021/03/26 02:33:32;;;;;;;6.18;3.70;;;17.00;58.30;;;;;;6214504;23;20452;-75
2021/03/26 02:36:14;;;;;;;6.88;3.35;;;17.00;58.30;;;;;;6214807;23;19997;-73
2021/03/26 02:38:43;;;;;;;4.90;2.70;;;17.00;58.30;;;;;;6214293;23;20016;-72
2021/03/26 02:41:08;;;;;;;5.65;3.30;;;17.00;58.30;;;;;;6214503;23;20001;-71
2021/03/26 02:43:43;;;;;;;3.55;2.42;;;16.90;58.30;;;;;;6188065;23;20001;-72
2021/03/26 02:46:37;;;;;;;6.50;3.03;;;16.90;58.30;;;;;;6214465;23;20003;-72
2021/03/26 02:49:10;;;;;;;4.78;2.88;;;16.90;58.30;;;;;;6188855;23;20064;-74
2021/03/26 02:52:02;;;;;;;5.05;3.05;;;16.90;58.30;;;;;;6214767;23;20024;-72
2021/03/26 02:54:34;;;;;;;5.70;2.88;;;16.90;58.30;;;;;;6215031;23;20461;-75
2021/03/26 02:57:13;;;;;;;4.72;2.90;;;16.90;58.30;;;;;;6187965;23;20001;-75
2021/03/26 02:59:59;;;;;;;4.38;2.70;;;16.80;58.30;;;;;;6214639;23;20001;-72
2021/03/26 03:02:27;;;;;;;;;;;16.80;58.30;;;;;;6215458;23;20004;-72
2021/03/26 03:05:28;;;;;;;5.00;2.90;;;16.70;58.50;;;;;;6214364;23;19900;-73
2021/03/26 03:08:11;;;;;;;4.90;2.63;;;16.70;58.40;;;;;;6150756;23;20008;-71
2021/03/26 03:10:55;;;;;;;4.70;2.95;;;16.70;58.50;;;;;;6214575;23;20028;-72
2021/03/26 03:13:46;;;;;;;5.20;2.75;;;16.70;58.50;;;;;;6214168;23;20032;-74
2021/03/26 03:16:44;;;;;;;5.38;2.95;;;16.70;58.60;;;;;;6213726;23;20004;-73
2021/03/26 03:19:18;;;;;;;5.57;3.15;;;16.60;58.70;;;;;;6147056;23;20005;-73
2021/03/26 03:21:51;;;;;;;5.15;2.92;;;16.60;58.70;;;;;;6187533;23;20452;-71
2021/03/26 03:24:39;;;;;;;4.32;2.47;;;16.60;58.70;;;;;;6187473;23;20384;-72
2021/03/26 03:27:09;;;;;;;5.85;2.78;;;16.60;58.80;;;;;;6214274;23;20005;-72
2021/03/26 03:29:51;;;;;;;5.15;2.45;;;16.60;58.80;;;;;;6214248;23;20476;-72
2021/03/26 03:32:37;;;;;;;3.75;2.55;;;16.60;58.80;;;;;;6214148;23;20008;-73
2021/03/26 03:35:16;;;;;;;4.50;2.50;;;16.60;58.80;;;;;;6214075;23;20004;-74
2021/03/26 03:38:26;;;;;;;4.45;2.70;;;16.60;58.70;;;;;;6213927;23;20012;-72
2021/03/26 03:41:04;;;;;;;5.28;2.70;;;16.60;58.80;;;;;;6200460;23;20394;-73
2021/03/26 03:43:52;;;;;;;4.53;2.38;;;16.60;58.80;;;;;;6187566;23;20083;-72
2021/03/26 03:46:27;;;;;;;5.78;2.60;;;16.60;58.80;;;;;;6213528;23;20054;-73
2021/03/26 03:48:59;;;;;;;4.55;2.67;;;16.50;58.80;;;;;;6213854;23;20012;-72
2021/03/26 03:51:32;;;;;;;3.90;2.65;;;16.50;58.80;;;;;;6213796;23;20008;-72
2021/03/26 03:54:05;;;;;;;3.83;2.55;;;16.50;58.90;;;;;;6214102;23;20402;-72
2021/03/26 03:56:37;;;;;;;4.32;2.65;;;16.50;58.80;;;;;;6214438;23;20000;-73
2021/03/26 03:59:08;;;;;;;4.13;2.55;;;16.50;58.70;;;;;;6214308;23;20008;-72
2021/03/26 04:01:38;;;;;;;3.75;2.30;;;16.40;58.80;;;;;;6213824;23;20028;-74
2021/03/26 04:04:10;;;;;;;5.20;2.58;;;16.50;58.90;;;;;;6214107;23;20086;-71
2021/03/26 04:06:56;;;;;;;5.07;2.42;;;16.50;58.90;;;;;;6186886;23;20007;-72
2021/03/26 04:09:28;;;;;;;3.58;2.35;;;16.50;58.80;;;;;;6213875;23;20407;-72
2021/03/26 04:12:13;;;;;;;4.97;2.70;;;16.50;58.90;;;;;;6213633;23;20479;-71
2021/03/26 04:14:57;;;;;;;4.13;2.20;;;16.40;58.90;;;;;;6188448;23;20005;-71
2021/03/26 04:17:30;;;;;;;4.80;2.55;;;16.40;58.90;;;;;;6213834;23;20010;-73
2021/03/26 04:20:00;;;;;;;3.35;2.05;;;16.40;59.00;;;;;;6213553;23;20027;-74
2021/03/26 04:22:35;;;;;;;3.75;2.33;;;16.40;59.10;;;;;;6186847;23;20009;-72
2021/03/26 04:25:09;;;;;;;5.57;3.05;;;16.30;59.10;;;;;;6213881;23;20011;-72
2021/03/26 04:27:39;;;;;;;3.78;2.65;;;16.30;59.10;;;;;;6214160;23;20000;-75
2021/03/26 04:30:38;;;;;;;4.72;2.47;;;16.30;59.20;;;;;;6214245;23;20008;-75
2021/03/26 04:33:05;;;;;;;3.83;2.50;;;16.30;59.10;;;;;;6187325;23;20032;-75
2021/03/26 04:35:31;;;;;;;4.40;2.35;;;16.30;59.10;;;;;;6213706;23;20456;-72
2021/03/26 04:38:15;;;;;;;5.45;2.70;;;16.30;58.90;;;;;;6213710;23;20009;-73
2021/03/26 04:40:45;;;;;;;4.32;2.42;;;16.30;58.80;;;;;;6213464;23;20000;-72
2021/03/26 04:43:36;;;;;;;4.03;2.70;;;16.30;58.90;;;;;;6213275;23;20051;-73
2021/03/26 04:46:26;;;;;;;5.13;2.38;;;16.30;59.00;;;;;;6213991;23;20004;-73
2021/03/26 04:49:05;;;;;;;2.80;2.25;;;16.30;59.10;;;;;;6213534;23;20513;-72
2021/03/26 04:51:37;;;;;;;4.78;2.67;;;16.20;59.00;;;;;;6213742;23;20176;-72
2021/03/26 04:54:27;;;;;;;4.22;2.65;;;16.20;59.00;;;;;;6187090;23;20088;-73
2021/03/26 04:57:18;;;;;;;5.18;2.58;;;16.20;59.10;;;;;;6214763;23;20326;-75
2021/03/26 05:00:12;;;;;;;5.30;2.70;;;16.20;59.10;;;;;;6215732;23;20437;-73
2021/03/26 05:02:43;;;;;;;5.28;2.78;;;16.20;59.00;;;;;;6189082;23;20016;-76
2021/03/26 05:05:11;;;;;;;3.92;2.55;;;16.20;59.00;;;;;;6215372;23;20005;-73
2021/03/26 05:07:42;;;;;;;4.53;2.88;;;16.20;59.00;;;;;;6216007;23;20031;-75
2021/03/26 05:10:17;;;;;;;3.72;2.58;;;16.20;59.00;;;;;;6215539;23;20433;-74
2021/03/26 05:12:48;;;;;;;3.53;2.08;;;16.10;59.00;;;;;;6215309;23;20373;-74
2021/03/26 05:15:17;;;;;;;4.90;2.92;;;16.20;59.10;;;;;;6215710;23;20050;-72
2021/03/26 05:17:54;;;;;;;5.15;2.90;;;16.10;59.00;;;;;;6215492;23;19997;-72
2021/03/26 05:21:00;;;;;;;4.85;2.60;;;16.10;59.00;;;;;;6215386;23;20008;-72
2021/03/26 05:23:30;;;;;;;4.95;3.05;;;16.10;59.10;;;;;;6215600;23;20001;-72
2021/03/26 05:25:58;;;;;;;5.15;3.10;;;16.10;59.10;;;;;;6215730;23;20011;-72
2021/03/26 05:28:27;;;;;;;6.40;3.20;;;16.10;59.10;;;;;;6215465;23;20008;-71
2021/03/26 05:30:56;;;;;;;5.68;3.10;;;16.10;59.20;;;;;;6215373;23;20349;-71
2021/03/26 05:33:34;;;;;;;4.60;2.72;;;16.10;59.20;;;;;;6215278;23;20341;-71
2021/03/26 05:36:09;;;;;;;7.65;3.47;;;16.10;59.20;;;;;;6215506;23;20028;-72
2021/03/26 05:38:50;;;;;;;6.65;3.80;;;16.10;59.10;;;;;;6214923;23;20036;-72
2021/03/26 05:41:54;;;;;;;4.50;2.63;;;16.10;59.10;;;;;;6214932;23;20008;-71
2021/03/26 05:44:54;;;;;;;5.32;3.03;;;16.00;59.10;;;;;;6188494;23;20122;-71
2021/03/26 05:47:55;;;;;;;7.05;3.03;;;16.10;59.10;;;;;;6215189;23;20005;-70
2021/03/26 05:50:48;;;;;;;5.43;3.15;;;16.10;59.10;;;;;;6214919;23;20009;-71
2021/03/26 05:53:20;;;;;;;4.13;2.97;;;16.00;59.10;;;;;;6214888;23;20080;-72
2021/03/26 05:56:07;;;;;;;6.80;3.20;;;16.00;59.10;;;;;;6188423;23;20396;-71
2021/03/26 05:58:47;;;;;;;4.65;3.08;;;16.00;59.10;;;;;;6214945;23;20008;-71
2021/03/26 06:01:24;;;;;;;5.35;3.28;;;16.00;59.00;;;;;;6214890;23;20005;-72
2021/03/26 06:04:11;;;;;;;5.57;3.13;;;16.00;58.90;;;;;;6214974;23;20001;-73
2021/03/26 06:07:07;;;;;;;5.45;3.15;;;16.00;58.90;;;;;;6215286;23;20024;-73
2021/03/26 06:10:07;;;;;;;4.57;3.08;;;16.00;58.90;;;;;;6214432;23;20009;-74
2021/03/26 06:12:57;;;;;;;6.22;3.70;;;16.00;58.90;;;;;;6214916;23;20023;-76
2021/03/26 06:15:43;;;;;;;5.65;4.00;;;16.00;58.90;;;;;;6214655;23;20005;-73
2021/03/26 06:18:27;;;;;;;3.97;2.90;;;15.90;58.90;;;;;;6215228;23;20024;-73
2021/03/26 06:21:15;;;;;;;4.60;3.08;;;15.90;58.90;;;;;;6214709;23;20062;-76
2021/03/26 06:24:04;;;;;;;6.22;3.70;;;15.90;59.00;;;;;;6215033;23;20067;-76
2021/03/26 06:26:47;;;;;;;5.85;3.25;;;15.90;59.00;;;;;;6188281;23;20039;-74
2021/03/26 06:29:31;;;;;;;7.88;3.90;;;15.90;59.00;;;;;;6214786;23;20063;-73
2021/03/26 06:32:24;;;;;;;4.50;3.20;;;15.90;58.80;;;;;;6214465;23;20007;-75
2021/03/26 06:35:19;;;;;;;5.93;3.45;;;15.90;58.80;;;;;;6214731;23;20075;-73
2021/03/26 06:38:08;;;;;;;6.25;3.33;;;15.90;58.70;;;;;;6128183;23;20370;-74
2021/03/26 06:40:49;;;;;;;5.50;3.67;;;15.90;58.80;;;;;;6187435;23;20084;-74
2021/03/26 06:43:33;;;;;;;6.50;3.30;;;15.90;58.80;;;;;;6214472;23;20007;-76
2021/03/26 06:46:24;;;;;;;6.28;3.75;;;15.90;58.80;;;;;;6214275;23;20004;-74
2021/03/26 06:49:17;;;;;;;4.95;3.03;;;15.90;58.80;;;;;;6214332;23;20035;-74
2021/03/26 06:52:19;;;;;;;5.22;3.22;;;15.90;58.80;;;;;;6214879;23;19997;-77
2021/03/26 06:55:09;;;;;;;5.85;3.55;;;15.80;58.80;;;;;;6214623;23;20039;-74
2021/03/26 06:57:53;;;;;;;5.07;3.28;;;15.90;58.80;;;;;;6214714;23;20001;-75
2021/03/26 07:00:27;;;;;;;5.28;3.60;;;15.90;58.80;;;;;;6214662;23;20004;-76
2021/03/26 07:03:15;;;;;;;7.30;3.47;;;15.90;58.70;;;;;;6214682;23;20076;-76
2021/03/26 07:05:50;;;;;;;5.00;2.95;;;15.90;58.80;;;;;;6215062;23;20000;-73
2021/03/26 07:08:46;;;;;;;4.47;2.83;;;15.90;59.00;;;;;;6187610;23;20009;-73
2021/03/26 07:11:30;;;;;;;10.32;4.00;;;15.90;59.30;;;;;;6214748;23;20016;-73
2021/03/26 07:14:08;;;;;;;7.13;3.58;;;16.00;58.90;;;;;;6214758;23;19996;-75
2021/03/26 07:17:00;;;;;;;6.18;3.60;;;16.10;59.20;;;;;;6214338;23;20029;-74
2021/03/26 07:20:08;;;;;;;5.18;3.00;;;16.20;60.20;;;;;;6187663;23;20011;-81
2021/03/26 07:23:07;;;;;;;5.68;3.28;;;16.30;61.10;;;;;;6174268;23;20317;-84
2021/03/26 07:25:41;;;;;;;9.07;4.00;;;16.40;61.10;;;;;;6214646;23;20334;-83
2021/03/26 07:28:13;;;;;;;5.45;2.83;;;16.50;61.30;;;;;;6216377;23;20001;-84
2021/03/26 07:30:51;;;;;;;9.30;4.35;;;16.60;61.10;;;;;;6215916;23;20000;-83
2021/03/26 07:33:21;;;;;;;9.57;4.22;;;16.60;60.40;;;;;;6187440;23;20047;-80
2021/03/26 07:36:13;;;;;;;9.82;4.22;;;16.70;60.50;;;;;;6214499;23;20000;-82
2021/03/26 07:38:51;;;;;;;8.35;3.53;;;16.80;60.30;;;;;;6214380;23;20004;-86
2021/03/26 07:41:45;;;;;;;8.85;3.97;;;16.90;60.60;;;;;;6214650;23;20005;-84
2021/03/26 07:44:47;;;;;;;8.45;4.20;;;16.90;59.90;;;;;;6214822;23;20005;-86
2021/03/26 07:47:18;;;;;;;6.68;3.47;;;17.00;59.70;;;;;;6093841;23;20094;-83
2021/03/26 07:50:11;;;;;;;8.30;3.97;;;17.10;60.10;;;;;;6194067;23;20431;-84
2021/03/26 07:52:52;;;;;;;9.60;4.00;;;17.10;59.00;;;;;;6186908;23;20011;-79
2021/03/26 07:55:45;;;;;;;9.25;3.17;;;17.20;59.20;;;;;;6213524;23;20011;-74
2021/03/26 07:58:41;;;;;;;11.77;3.10;;;17.30;59.40;;;;;;6214397;23;20005;-84
2021/03/26 08:01:17;;;;;;;9.20;3.15;;;17.40;58.80;;;;;;6187278;23;20323;-84
2021/03/26 08:03:42;;;;;;;9.13;3.58;;;17.40;58.50;;;;;;6214348;23;20063;-87
2021/03/26 08:06:23;;;;;;;6.18;3.45;;;17.40;58.20;;;;;;6213291;23;20004;-86
2021/03/26 08:09:13;;;;;;;7.65;3.33;;;17.50;58.00;;;;;;6212084;23;20080;-87
2021/03/26 08:11:58;;;;;;;11.35;3.45;;;17.50;57.80;;;;;;6209710;23;20007;-83
2021/03/26 08:14:48;;;;;;;8.40;3.00;;;17.50;57.80;;;;;;6212670;23;20444;-87
2021/03/26 08:17:40;;;;;;;6.47;2.83;;;17.50;57.80;;;;;;6213233;23;20131;-85
2021/03/26 08:20:26;;;;;;;6.57;2.38;;;17.50;57.80;;;;;;6212774;23;20011;-76
2021/03/26 08:23:09;;;;;;;5.93;2.55;;;17.60;57.70;;;;;;6213348;23;20000;-78
2021/03/26 08:26:04;;;;;;;5.57;2.58;;;17.60;57.70;;;;;;6213207;23;20032;-80
2021/03/26 08:28:58;;;;;;;5.07;2.42;;;17.60;57.60;;;;;;6209700;23;20009;-81
2021/03/26 08:31:48;;;;;;;5.95;2.70;;;17.60;57.50;;;;;;6212341;23;20337;-75
2021/03/26 08:34:37;;;;;;;6.07;1.85;;;17.60;57.50;;;;;;6213611;23;20024;-83
2021/03/26 08:37:21;;;;;;;5.55;2.63;;;17.60;57.30;;;;;;6185556;23;20063;-77
2021/03/26 08:39:53;;;;;;;6.80;2.58;;;17.70;57.30;;;;;;6213255;23;20001;-70
2021/03/26 08:42:42;;;;;;;6.95;2.78;;;17.60;57.30;;;;;;6213010;23;20001;-74
2021/03/26 08:45:11;;;;;;;8.25;2.70;;;17.60;57.20;;;;;;6212685;23;20011;-80
2021/03/26 08:47:47;;;;;;;4.78;2.15;;;17.60;57.20;;;;;;6212705;23;20004;-85
2021/03/26 08:50:40;;;;;;;5.28;2.15;;;17.60;57.20;;;;;;6186746;23;20012;-79
2021/03/26 08:53:19;;;;;;;3.65;2.10;;;17.60;56.90;;;;;;6213139;23;20076;-74
2021/03/26 08:56:16;;;;;;;7.18;2.40;;;17.50;56.80;;;;;;6213482;23;20064;-77
2021/03/26 08:58:45;;;;;;;3.83;1.85;;;17.60;56.90;;;;;;6204697;23;20438;-83
2021/03/26 09:01:55;;;;;;;4.47;1.92;;;17.60;56.80;;;;;;6212891;23;20009;-81
2021/03/26 09:04:41;;;;;;;5.90;2.03;;;17.50;56.80;;;;;;6092696;23;20439;-72
2021/03/26 09:07:39;;;;;;;4.75;1.80;;;17.50;56.90;;;;;;6072535;23;20010;-83
2021/03/26 09:10:35;;;;;;;4.30;2.10;;;17.50;57.10;;;;;;6191056;23;20100;-82
2021/03/26 09:13:22;;;;;;;4.57;1.75;;;17.50;57.20;;;;;;6213430;23;20426;-89
2021/03/26 09:16:11;;;;;;;5.38;2.40;;;17.50;57.20;;;;;;6214057;23;20417;-87
2021/03/26 09:18:36;;;;;;;4.50;2.25;;;17.50;57.20;;;;;;6186325;23;20008;-87
2021/03/26 09:21:36;;;;;;;5.22;2.13;;;17.50;57.30;;;;;;6212920;23;20074;-87
2021/03/26 09:24:17;;;;;;;3.60;1.80;;;17.50;57.30;;;;;;6213579;23;20083;-87
2021/03/26 09:27:07;;;;;;;6.30;2.10;;;17.50;57.00;;;;;;6213286;23;20001;-87
2021/03/26 09:29:41;;;;;;;4.47;2.20;;;17.50;56.70;;;;;;6213037;23;20437;-85
2021/03/26 09:32:55;;;;;;;3.65;1.77;;;17.50;56.70;;;;;;6213048;23;20000;-77
2021/03/26 09:35:37;;;;;;;5.65;1.70;;;17.40;56.60;;;;;;6067450;23;20006;-80
2021/03/26 09:38:14;;;;;;;4.35;1.70;;;17.40;56.50;;;;;;6211444;23;20018;-83
2021/03/26 09:40:50;;;;;;;5.38;2.15;;;17.40;56.60;;;;;;6212516;23;20409;-79
2021/03/26 09:43:31;;;;;;;6.78;1.45;;;17.40;56.60;;;;;;6187293;23;20345;-85
2021/03/26 09:45:59;;;;;;;4.15;1.60;;;17.40;56.70;;;;;;6214286;23;20005;-80
2021/03/26 09:48:46;;;;;;;3.42;1.33;;;17.40;56.70;;;;;;6214241;23;20019;-77
2021/03/26 09:51:44;;;;;;;4.18;1.95;;;17.40;56.70;;;;;;6214236;23;19997;-80
2021/03/26 09:54:38;;;;;;;3.25;1.50;;;17.40;56.70;;;;;;6214199;23;20738;-84
2021/03/26 09:57:22;;;;;;;3.97;1.63;;;17.40;56.70;;;;;;6214271;23;20000;-83
2021/03/26 10:00:19;;;;;;;4.47;1.77;;;17.40;56.70;;;;;;6214733;23;20001;-85
2021/03/26 10:03:06;;;;;;;5.22;1.60;;;17.40;56.70;;;;;;6214443;23;20024;-76
2021/03/26 10:06:09;;;;;;;3.83;1.52;;;17.40;56.60;;;;;;6213928;23;20000;-83
2021/03/26 10:11:58;;;;;;;3.78;1.70;;;17.40;56.50;;;;;;6214118;23;20011;-85
2021/03/26 10:14:27;;;;;;;4.30;1.90;;;17.50;56.40;;;;;;6093840;23;20081;-75
2021/03/26 10:17:17;;;;;;;5.57;1.35;;;17.50;56.30;;;;;;6204569;23;20005;-74
2021/03/26 10:19:52;;;;;;;4.28;1.13;;;17.50;56.40;;;;;;6214420;23;19997;-86
2021/03/26 10:22:26;;;;;;;5.63;1.58;;;17.40;56.50;;;;;;6215136;23;20004;-84
2021/03/26 10:25:01;;;;;;;2.70;1.33;;;17.40;56.60;;;;;;6214159;23;20001;-85
2021/03/26 10:27:32;;;;;;;2.30;1.13;;;17.40;56.50;;;;;;6214239;23;20433;-84
2021/03/26 10:30:15;;;;;;;2.30;1.10;;;17.30;56.50;;;;;;6214456;23;20393;-83
2021/03/26 10:32:40;;;;;;;2.85;1.05;;;17.30;56.60;;;;;;6214353;23;19997;-84
2021/03/26 10:35:23;;;;;;;3.13;1.50;;;17.30;56.60;;;;;;6213631;23;20013;-84
2021/03/26 10:38:13;;;;;;;3.55;1.38;;;17.30;56.70;;;;;;6214408;23;20444;-85
2021/03/26 10:40:56;;;;;;;2.95;1.23;;;17.30;56.70;;;;;;6214132;23;20004;-84
2021/03/26 10:43:27;;;;;;;4.82;1.35;;;17.30;56.70;;;;;;6214635;23;20007;-84
2021/03/26 10:46:05;;;;;;;2.60;1.20;;;17.20;56.70;;;;;;6213334;23;20035;-82
2021/03/26 10:48:33;;;;;;;2.45;0.82;;;17.20;56.70;;;;;;6213401;23;20441;-82
2021/03/26 10:51:33;;;;;;;3.72;1.33;;;17.20;56.70;;;;;;6186696;23;20015;-82
2021/03/26 10:54:02;;;;;;;3.40;1.10;;;17.20;56.70;;;;;;6186723;23;20337;-85
2021/03/26 10:56:30;;;;;;;2.72;1.10;;;17.30;56.70;;;;;;6213160;23;20075;-83
2021/03/26 10:59:06;;;;;;;2.53;0.90;;;17.30;56.60;;;;;;6212926;23;20448;-84
2021/03/26 11:01:41;;;;;;;;;;;17.30;56.60;;;;;;6214701;23;20031;-82
2021/03/26 11:04:30;;;;;;;4.13;1.05;;;17.30;56.50;;;;;;6213584;23;19899;-83
2021/03/26 11:07:12;;;;;;;4.22;1.10;;;17.40;56.40;;;;;;6212374;23;20008;-82
2021/03/26 11:09:47;;;;;;;4.00;1.20;;;17.40;56.30;;;;;;6212442;23;20174;-78
2021/03/26 11:12:15;;;;;;;4.10;1.10;;;17.50;56.20;;;;;;6214071;23;20070;-70
2021/03/26 11:15:00;;;;;;;3.92;1.30;;;17.50;56.10;;;;;;6186873;23;20028;-78
2021/03/26 11:17:29;;;;;;;3.30;1.13;;;17.50;56.20;;;;;;6213110;23;20441;-79
2021/03/26 11:20:26;;;;;;;3.40;1.10;;;17.50;56.00;;;;;;6212701;23;20004;-82
2021/03/26 11:23:13;;;;;;;3.40;1.00;;;17.50;55.90;;;;;;6138479;23;20459;-82
2021/03/26 11:25:47;;;;;;;4.43;1.10;;;17.50;56.10;;;;;;6213066;23;20071;-78
2021/03/26 11:28:58;;;;;;;2.25;1.00;;;17.50;56.10;;;;;;6212580;23;20030;-78
2021/03/26 11:31:46;;;;;;;5.40;0.85;;;17.40;56.10;;;;;;6211971;23;20388;-82
2021/03/26 11:34:32;;;;;;;4.85;1.35;;;17.40;56.20;;;;;;6212931;23;20008;-84
2021/03/26 11:37:03;;;;;;;2.55;1.02;;;17.50;56.20;;;;;;6211731;23;20017;-75
2021/03/26 11:39:39;;;;;;;3.42;1.50;;;17.50;56.50;;;;;;6212489;23;20310;-75
2021/03/26 11:42:08;;;;;;;2.95;1.05;;;17.50;56.10;;;;;;6212542;23;20380;-76
2021/03/26 11:44:45;;;;;;;4.05;1.10;;;17.50;56.10;;;;;;6211770;23;20433;-73
2021/03/26 11:47:25;;;;;;;1.88;1.02;;;17.50;56.00;;;;;;6211954;23;20011;-71
2021/03/26 11:49:59;;;;;;;4.03;1.40;;;17.60;55.80;;;;;;6212039;23;20036;-71
2021/03/26 11:52:26;;;;;;;3.38;1.30;;;17.60;55.80;;;;;;6185268;23;20000;-71
2021/03/26 11:55:00;;;;;;;4.90;1.20;;;17.60;55.80;;;;;;6211975;23;20039;-71
2021/03/26 11:57:35;;;;;;;4.82;1.58;;;17.60;55.70;;;;;;6185263;23;20012;-70
2021/03/26 12:00:04;;;;;;;4.47;1.25;;;17.60;55.80;;;;;;6211962;23;20338;-70
2021/03/26 12:02:44;;;;;;;6.40;1.20;;;17.60;55.90;;;;;;6212501;23;20009;-71
2021/03/26 12:05:37;;;;;;;2.42;0.80;;;17.60;55.80;;;;;;6184768;23;20047;-71
2021/03/26 12:08:25;;;;;;;2.13;1.02;;;17.50;56.00;;;;;;6211653;23;20012;-77
2021/03/26 12:11:06;;;;;;;2.45;1.00;;;17.50;56.00;;;;;;6213153;23;20067;-70
2021/03/26 12:13:38;;;;;;;4.00;1.05;;;17.60;56.10;;;;;;6186141;23;20000;-72
2021/03/26 12:16:13;;;;;;;1.90;1.00;;;17.50;56.00;;;;;;6212937;23;20384;-70
2021/03/26 12:19:03;;;;;;;3.25;1.25;;;17.50;56.00;;;;;;6212974;23;20024;-72
2021/03/26 12:21:29;;;;;;;3.67;1.10;;;17.50;56.20;;;;;;6212647;23;20035;-77
2021/03/26 12:24:17;;;;;;;2.55;1.05;;;17.40;56.20;;;;;;6212949;23;20001;-71
2021/03/26 12:27:04;;;;;;;3.65;1.10;;;17.40;56.20;;;;;;6212784;23;20051;-74
2021/03/26 12:29:39;;;;;;;2.47;1.13;;;17.30;56.30;;;;;;6212947;23;20008;-80
2021/03/26 12:32:24;;;;;;;2.75;1.13;;;17.30;56.40;;;;;;6212694;23;20000;-80
2021/03/26 12:34:55;;;;;;;1.92;0.75;;;17.30;56.60;;;;;;6213232;23;20008;-71
2021/03/26 12:37:45;;;;;;;3.42;0.93;;;17.30;56.80;;;;;;6186341;23;20547;-71
2021/03/26 12:40:41;;;;;;;6.93;1.13;;;17.30;56.70;;;;;;6212744;23;20383;-81
2021/03/26 12:43:12;;;;;;;2.85;1.08;;;17.30;57.00;;;;;;6185229;23;20005;-79
2021/03/26 12:46:05;;;;;;;3.38;1.20;;;17.30;56.90;;;;;;6212410;23;20001;-76
2021/03/26 12:48:54;;;;;;;4.20;1.10;;;17.30;56.90;;;;;;6212529;23;20509;-78
2021/03/26 12:51:32;;;;;;;3.72;1.10;;;17.40;56.80;;;;;;6212235;23;20005;-81
2021/03/26 12:54:16;;;;;;;5.32;1.17;;;17.50;57.40;;;;;;6211946;23;20032;-81
2021/03/26 12:56:49;;;;;;;5.55;1.00;;;17.50;57.90;;;;;;6212084;23;20548;-84
2021/03/26 12:59:39;;;;;;;4.47;0.90;;;17.60;57.80;;;;;;6211929;23;20547;-79
2021/03/26 13:02:26;;;;;;;5.38;0.90;;;17.70;58.70;;;;;;6211686;23;20009;-76
2021/03/26 13:04:57;;;;;;;3.08;0.98;;;17.70;58.40;;;;;;6212077;23;20184;-81
2021/03/26 13:07:32;;;;;;;5.28;1.55;;;17.80;58.50;;;;;;6211471;23;20001;-75
2021/03/26 13:10:20;;;;;;;3.22;1.35;;;17.80;58.70;;;;;;6210857;23;20159;-77
2021/03/26 13:12:48;;;;;;;2.97;1.08;;;17.90;59.30;;;;;;6210727;23;20008;-74
2021/03/26 13:15:26;;;;;;;2.95;0.70;;;17.90;59.00;;;;;;6211313;23;20000;-77
2021/03/26 13:18:09;;;;;;;3.40;1.00;;;18.00;59.30;;;;;;6187004;23;20004;-71
2021/03/26 13:20:57;;;;;;;2.97;1.02;;;18.00;59.20;;;;;;6214809;23;20009;-72
2021/03/26 13:23:32;;;;;;;3.58;1.00;;;18.10;59.40;;;;;;6214844;23;20001;-71
2021/03/26 13:26:03;;;;;;;1.85;0.82;;;18.20;59.10;;;;;;6214616;23;20007;-73
2021/03/26 13:28:41;;;;;;;3.75;0.80;;;18.30;59.20;;;;;;6214485;23;20028;-77
2021/03/26 13:31:21;;;;;;;3.35;0.80;;;18.30;58.50;;;;;;6214392;23;20011;-77
2021/03/26 13:33:59;;;;;;;2.67;0.73;;;18.40;58.60;;;;;;6214211;23;20000;-71
2021/03/26 13:36:40;;;;;;;3.17;1.27;;;18.40;58.20;;;;;;6214860;23;20082;-70
2021/03/26 13:39:24;;;;;;;3.10;0.80;;;18.50;58.10;;;;;;6214008;23;20059;-72
2021/03/26 13:42:11;;;;;;;2.70;0.73;;;18.50;58.10;;;;;;6214539;23;20012;-71
2021/03/26 13:45:04;;;;;;;4.63;0.80;;;18.50;57.70;;;;;;6214280;23;20001;-72
2021/03/26 13:47:42;;;;;;;2.78;0.90;;;18.60;57.60;;;;;;6214430;23;20004;-70
2021/03/26 13:50:14;;;;;;;2.42;0.75;;;18.60;57.50;;;;;;6214468;23;20012;-74
2021/03/26 13:52:54;;;;;;;3.72;0.93;;;18.60;57.50;;;;;;6214362;23;20460;-77